1973 Severe Tropical Cyclone BERYL (1973330S10116)


IBTrACS version v04r00. Visit IBTrACS website for data access.
Please direct all questions to the IBTrACS Q and A forum

Storm track - Intensity - Wind Radii - Intensity Data - Source Data - All data

Summary Information

Storm ID 1973330S10116
Start Nov 26 00Z
Landfall Dec 3 18Z
Max Intensity 70 kt (Nov 30 18Z), 973 mb (Nov 30 18Z)
End Dec 4 01Z
ATCF IDs SH071974
Track status Best track data.

Storm track plot

Map of storm track

Intensity plots

Map of storm track

Radial wind information

No radial wind information for this storm


Position and Intensity Table

BASIN ISO_TIME_________ NATURE LAT LON WMO WIND WMO PRES BOM WIND BOM PRES NEUMANN WIND NEUMANN PRES
degrees north degrees east kts mb kts mb kts mb
SI 1973-11-26 00:00:00 TS -9.90 116.20
SI 01:00:00 TS -9.93 116.24 25 1007 25 1007
SI 03:00:00 TS -9.93 116.27 25 1005
SI 04:00:00 TS -9.94 116.29 25 1005 25 1005
SI 06:00:00 TS -10.00 116.36 25 1002 15 1006
SI 07:00:00 TS -10.02 116.40 25 1002 25 1002 15 1005
SI 09:00:00 TS -10.06 116.46 25 1002 17 1005
SI 10:00:00 TS -10.08 116.50 25 1003 25 1003 18 1004
SI 12:00:00 TS -10.10 116.55 25 1003 20 1004
SI 13:00:00 TS -10.11 116.57 25 1004 25 1004 20 1004
SI 15:00:00 TS -10.15 116.60 25 1004 20 1004
SI 16:00:00 TS -10.17 116.62 25 1005 25 1005 20 1004
SI 18:00:00 TS -10.20 116.67 25 1004 20 1004
SI 19:00:00 TS -10.21 116.69 25 1004 25 1004 20 1004
SI 21:00:00 TS -10.24 116.72 25 1004 20 1004
SI 22:00:00 TS -10.26 116.73 25 1004 25 1004 20 1004
SI 1973-11-27 00:00:00 TS -10.29 116.79 25 1004 20 1004
SI 01:00:00 TS -10.31 116.82 25 1004 25 1004 20 1003
SI 03:00:00 TS -10.32 116.87 25 1002 22 1002
SI 04:00:00 TS -10.33 116.89 25 1002 25 1002 23 1002
SI 06:00:00 TS -10.35 116.93 25 999 25 1001
SI 07:00:00 TS -10.37 116.95 25 999 25 999 26 1000
SI 09:00:00 TS -10.39 117.00 28 998 30 999
SI 10:00:00 TS -10.41 117.03 30 998 30 998 31 999
SI 12:00:00 TS -10.44 117.07 30 997 35 998
SI 13:00:00 TS -10.46 117.08 30 997 30 997 35 997
SI 15:00:00 TS -10.49 117.12 30 996 35 997
SI 16:00:00 TS -10.50 117.13 30 996 30 996 35 996
SI 18:00:00 TS -10.54 117.15 33 994 35 996
SI 19:00:00 TS -10.55 117.16 35 994 35 994 35 995
SI 21:00:00 TS -10.57 117.19 35 994 37 995
SI 22:00:00 TS -10.57 117.20 35 994 35 994 38 994
SI 1973-11-28 00:00:00 TS -10.59 117.22 35 994 40 994
SI 01:00:00 TS -10.61 117.24 35 994 35 994 40 993
SI 03:00:00 TS -10.61 117.32 38 992 42 993
SI 04:00:00 TS -10.61 117.36 40 992 40 992 43 992
SI 06:00:00 TS -10.62 117.44 40 989 45 992
SI 07:00:00 TS -10.62 117.47 40 989 40 989 45 991
SI 09:00:00 TS -10.60 117.54 40 989 45 991
SI 10:00:00 TS -10.59 117.57 40 989 40 989 45 990
SI 12:00:00 TS -10.56 117.64 43 989 45 990
SI 13:00:00 TS -10.55 117.68 45 990 45 990 45 989
SI 15:00:00 TS -10.54 117.77 45 989 47 989
SI 16:00:00 TS -10.55 117.81 45 989 45 989 48 989
SI 18:00:00 TS -10.54 117.90 48 988 50 989
SI 19:00:00 TS -10.53 117.94 50 988 50 988 50 988
SI 21:00:00 TS -10.49 118.03 50 988 50 988
SI 22:00:00 TS -10.47 118.07 50 988 50 988 50 988
SI 1973-11-29 00:00:00 TS -10.45 118.15 50 988 50 988
SI 01:00:00 TS -10.44 118.17 50 988 50 988 50 987
SI 03:00:00 TS -10.44 118.21 50 986 52 987
SI 04:00:00 TS -10.44 118.22 50 986 50 986 53 986
SI 06:00:00 TS -10.46 118.26 50 984 55 986
SI 09:00:00 TS -10.51 118.32 50 983 55 984
SI 10:00:00 TS -10.52 118.33 50 983 50 983 55 984
SI 12:00:00 TS -10.55 118.32 50 983 55 983
SI 13:00:00 TS -10.56 118.33 50 983 50 983 55 982
SI 15:00:00 TS -10.56 118.41 53 982 57 982
SI 16:00:00 TS -10.57 118.44 55 982 55 982 58 982
SI 18:00:00 TS -10.60 118.47 55 981 60 982
SI 19:00:00 TS -10.61 118.49 55 981 55 981 60 981
SI 21:00:00 TS -10.64 118.52 55 981 60 981
SI 22:00:00 TS -10.67 118.53 55 981 55 981 60 981
SI 1973-11-30 00:00:00 TS -10.74 118.52 55 981 60 981
SI 01:00:00 TS -10.80 118.50 55 981 55 981 60 980
SI 03:00:00 TS -10.92 118.43 58 979 62 980
SI 04:00:00 TS -11.00 118.38 60 979 60 979 63 979
SI 06:00:00 TS -11.17 118.26 63 976 65 979
SI 07:00:00 TS -11.26 118.20 65 976 65 976 65 978
SI 09:00:00 TS -11.46 118.05 65 976 65 977
SI 10:00:00 TS -11.57 117.97 65 976 65 976 65 977
SI 12:00:00 TS -11.78 117.83 65 976 65 976
SI 13:00:00 TS -11.88 117.75 65 976 65 976 65 975
SI 15:00:00 TS -12.08 117.57 65 975 67 975
SI 16:00:00 TS -12.18 117.47 65 975 65 975 68 975
SI 18:00:00 TS -12.38 117.28 68 973 70 975
SI 19:00:00 TS -12.48 117.19 70 973 70 973 70 974
SI 21:00:00 TS -12.69 116.99 70 973 70 974
SI 22:00:00 TS -12.79 116.89 70 973 70 973 70 973
SI 1973-12-01 00:00:00 TS -13.01 116.68 70 973 70 973
SI 01:00:00 TS -13.12 116.58 70 973 70 973 70 973
SI 03:00:00 TS -13.33 116.36 70 973 70 973
SI 04:00:00 TS -13.44 116.25 70 973 70 973 70 973
SI 06:00:00 TS -13.65 116.03 70 973 70 973
SI 07:00:00 TS -13.76 115.92 70 973 70 973 70 973
SI 09:00:00 TS -14.00 115.70 70 973 70 973
SI 10:00:00 TS -14.13 115.60 70 973 70 973 70 973
SI 12:00:00 TS -14.38 115.38 70 973 70 973
SI 13:00:00 TS -14.50 115.28 70 973 70 973 70 973
SI 15:00:00 TS -14.76 115.08 70 973 70 973
SI 16:00:00 TS -14.90 114.98 70 973 70 973 70 973
SI 18:00:00 TS -15.17 114.78 70 973 70 973
SI 19:00:00 TS -15.31 114.67 70 973 70 973 70 973
SI 21:00:00 TS -15.59 114.47 70 973 70 973
SI 22:00:00 TS -15.73 114.37 70 973 70 973 70 973
SI 1973-12-02 00:00:00 TS -16.01 114.19 70 973 70 973
SI 01:00:00 TS -16.14 114.12 70 973 70 973 69 973
SI 03:00:00 TS -16.39 114.03 70 973 67 974
SI 04:00:00 TS -16.52 114.01 70 974 70 974 66 974
SI 06:00:00 TS -16.77 113.98 66 974 65 976
SI 07:00:00 TS -16.90 113.96 65 975 65 975 64 976
SI 09:00:00 TS -17.16 113.94 65 977 62 978
SI 10:00:00 TS -17.29 113.93 65 978 65 978 61 979
SI 12:00:00 TS -17.56 113.92 61 981 60 981
SI 13:00:00 TS -17.70 113.91 60 983 60 983 59 981
SI 15:00:00 TS -17.99 113.91 60 985 57 982
SI 16:00:00 TS -18.14 113.91 60 986 60 986 56 982
SI 18:00:00 TS -18.44 113.91 56 986 55 984
SI 19:00:00 TS -18.59 113.90 55 986 55 986 54 984
SI 21:00:00 TS -18.91 113.89 55 986 52 985
SI 22:00:00 TS -19.06 113.88 55 987 55 987 51 985
SI 1973-12-03 00:00:00 TS -19.39 113.87 55 987 50 987
SI 01:00:00 TS -19.55 113.86 55 988 55 988 49 987
SI 03:00:00 TS -19.88 113.84 55 988 47 989
SI 04:00:00 TS -20.05 113.84 55 989 55 989 46 989
SI 06:00:00 TS -20.39 113.80 51 989 45 991
SI 07:00:00 TS -20.57 113.79 50 990 50 990 43 991
SI 09:00:00 TS -20.94 113.76 50 992 40 993
SI 10:00:00 TS -21.12 113.75 50 994 50 994 38 994
SI 12:00:00 TS -21.47 113.72 46 996 35 996
SI 13:00:00 TS -21.65 113.71 45 998 45 998 35 996
SI 15:00:00 TS -21.99 113.70 45 1001 45 1001 35 999
SI 16:00:00 TS -22.16 113.71 40 1002 40 1002 35 999
SI 18:00:00 TS -22.49 113.75 33 1002 35 1002
SI 19:00:00 TS -22.64 113.79 30 1002 30 1002 34 1002
SI 21:00:00 TS -22.93 113.90 30 1003 32 1003
SI 22:00:00 TS -23.07 113.97 30 1004 30 1004 31 1003
SI 1973-12-04 00:00:00 TS -23.31 114.11 26 1004 30 1004
SI 01:00:00 NR -23.50 114.10 25 1005 25 1005

Source Information

Agency Information
USA bsh071974.txt
TOKYO
CMA
HKO
NEWDELHI
REUNION
BOM IDCKMSTM0S.csv:Line=8274:BERYL
NADI
WELLINGTON
DS824 s_hem.dat:1235:07S
TD9636 cons_worldwide_trop_cyclone_18710101-19891231-006:Line=9383
TD9635
NEUMANN tracks.sh:Storm=383:BERYL:BSH0774:BM429
MLC

All available IBTrACS Data

SEASON BASIN SUBBASIN ISO_TIME_________ NATURE LAT LON WMO WIND WMO PRES WMO AGENCY DIST2LAND LANDFALL IFLAG USA AGENCY USA ATCF_ID USA LAT USA LON USA SSHS BOM LAT BOM LON BOM TYPE BOM WIND BOM PRES BOM CI DS824 LAT DS824 LON DS824 STAGE TD9636 LAT TD9636 LON TD9636 STAGE NEUMANN LAT NEUMANN LON NEUMANN CLASS NEUMANN WIND NEUMANN PRES STORM SPEED STORM DIR
Year degrees north degrees east kts mb km km degrees north degrees east 1 degrees north degrees east kts mb 1 degrees north degrees east degrees north degrees east degrees north degrees east kts mb kts degrees
1974 SI WA 1973-11-26 00:00:00 TS -9.90 116.20 103 103 O________OO___ jtwc_sh SH071974 -9.90 116.20 -1 -9.90 116.20 TC -9.90 116.20 4 3 134
1974 SI WA 01:00:00 TS -9.93 116.24 25 1007 bom 103 101 P_____O__PP___ SH071974 -9.90 116.22 -1 -10.10 116.40 20 25 1007 1.50 -9.90 116.22 TC -9.91 116.21 4 2 115
1974 SI WA 03:00:00 TS -9.93 116.27 101 101 P_____P__PP___ SH071974 -9.89 116.25 -1 -10.09 116.39 20 25 1005 -9.89 116.25 TC -9.92 116.24 4 1 110
1974 SI WA 04:00:00 TS -9.94 116.29 25 1005 bom 101 101 P_____O__PP___ SH071974 -9.89 116.27 -1 -10.10 116.40 20 25 1005 1.50 -9.89 116.27 TC -9.92 116.26 4 2 124
1974 SI WA 06:00:00 TS -10.00 116.36 112 112 O_____P__OP_O_ jtwc_sh SH071974 -9.90 116.30 -1 -10.17 116.46 20 25 1002 -9.90 116.30 TC -9.94 116.29 4 -10.10 116.60 TC 15 1006 3 128
1974 SI WA 07:00:00 TS -10.02 116.40 25 1002 bom 112 112 P_____O__PP_P_ SH071974 -9.91 116.32 -1 -10.20 116.50 20 25 1002 1.50 -9.91 116.32 TC -9.95 116.31 4 -10.12 116.61 TC 15 1005 2 123
1974 SI WA 09:00:00 TS -10.06 116.46 123 123 P_____P__PP_P_ SH071974 -9.94 116.35 -1 -10.21 116.57 20 25 1002 -9.94 116.35 TC -9.96 116.34 4 -10.15 116.64 TC 17 1005 2 117
1974 SI WA 10:00:00 TS -10.08 116.50 25 1003 bom 123 123 P_____O__PP_P_ SH071974 -9.96 116.37 -1 -10.20 116.60 20 25 1003 1.50 -9.96 116.37 TC -9.97 116.36 4 -10.17 116.65 TC 18 1004 2 119
1974 SI WA 12:00:00 TS -10.10 116.55 123 120 O_____P__OO_O_ jtwc_sh SH071974 -10.00 116.40 -1 -10.19 116.67 20 25 1003 -10.00 116.40 TC -10.00 116.40 4 -10.20 116.70 TC 20 1004 2 118
1974 SI WA 13:00:00 TS -10.11 116.57 25 1004 bom 120 120 P_____O__PP_P_ SH071974 -10.02 116.41 -1 -10.20 116.70 20 25 1004 1.50 -10.02 116.41 TC -10.01 116.42 4 -10.22 116.73 TC 20 1004 2 132
1974 SI WA 15:00:00 TS -10.15 116.60 130 130 P_____P__PP_P_ SH071974 -10.05 116.44 -1 -10.27 116.70 20 25 1004 -10.05 116.44 TC -10.05 116.47 4 -10.25 116.80 TC 20 1004 2 137
1974 SI WA 16:00:00 TS -10.17 116.62 25 1005 bom 130 127 P_____O__PP_P_ SH071974 -10.07 116.46 -1 -10.30 116.70 20 25 1005 1.50 -10.07 116.46 TC -10.06 116.49 4 -10.27 116.84 TC 20 1004 2 124
1974 SI WA 18:00:00 TS -10.20 116.67 127 127 O_____P__OP_O_ jtwc_sh SH071974 -10.10 116.50 -1 -10.31 116.78 20 25 1004 -10.10 116.50 TC -10.10 116.54 4 -10.30 116.90 TC 20 1004 2 124
1974 SI WA 19:00:00 TS -10.21 116.69 25 1004 bom 127 127 P_____O__PP_P_ SH071974 -10.12 116.53 -1 -10.30 116.80 20 25 1004 1.50 -10.12 116.53 TC -10.12 116.57 4 -10.32 116.92 TC 20 1004 1 139
1974 SI WA 21:00:00 TS -10.24 116.72 127 127 P_____P__PP_P_ SH071974 -10.16 116.60 -1 -10.29 116.72 20 25 1004 -10.16 116.60 TC -10.15 116.62 4 -10.35 116.96 TC 20 1004 1 141
1974 SI WA 22:00:00 TS -10.26 116.73 25 1004 bom 138 136 P_____O__PP_P_ SH071974 -10.17 116.64 -1 -10.30 116.70 20 25 1004 1.50 -10.17 116.64 TC -10.17 116.65 4 -10.37 116.97 TC 20 1004 2 126
1974 SI WA 1973-11-27 00:00:00 TS -10.29 116.79 136 136 O_____P__OO_O_ jtwc_sh SH071974 -10.20 116.70 -1 -10.37 116.82 20 25 1004 -10.20 116.70 TC -10.20 116.70 4 -10.40 117.00 TC 20 1004 2 118
1974 SI WA 01:00:00 TS -10.31 116.82 25 1004 bom 136 134 P_____O__PP_P_ SH071974 -10.20 116.72 -1 -10.40 116.90 20 25 1004 2.00 -10.20 116.72 TC -10.21 116.73 4 -10.42 117.02 TC 20 1003 2 110
1974 SI WA 03:00:00 TS -10.32 116.87 134 134 P_____P__PP_P_ SH071974 -10.20 116.75 -1 -10.40 116.98 20 25 1002 -10.20 116.75 TC -10.23 116.78 4 -10.45 117.05 TC 22 1002 1 107
1974 SI WA 04:00:00 TS -10.33 116.89 25 1002 bom 134 134 P_____O__PP_P_ SH071974 -10.20 116.76 -1 -10.40 117.00 20 25 1002 2.00 -10.20 116.76 TC -10.24 116.81 4 -10.47 117.07 TC 23 1002 1 119
1974 SI WA 06:00:00 TS -10.35 116.93 146 146 O_____P__OP_O_ jtwc_sh SH071974 -10.20 116.80 -1 -10.47 117.00 20 25 999 -10.20 116.80 TC -10.26 116.86 4 -10.50 117.10 TC 25 1001 1 128
1974 SI WA 07:00:00 TS -10.37 116.95 25 999 bom 146 145 P_____O__PP_P_ SH071974 -10.21 116.83 -1 -10.50 117.00 20 25 999 2.00 -10.21 116.83 TC -10.26 116.88 4 -10.52 117.12 TC 26 1000 2 116
1974 SI WA 09:00:00 TS -10.39 117.00 145 145 P_____P__PP_P_ SH071974 -10.24 116.90 -1 -10.50 117.07 20 28 998 -10.24 116.90 TC -10.28 116.93 4 -10.55 117.16 TC 30 999 2 115
1974 SI WA 10:00:00 TS -10.41 117.03 30 998 bom 145 145 P_____O__PP_P_ SH071974 -10.26 116.94 -1 -10.50 117.10 20 30 998 2.50 -10.26 116.94 TC -10.29 116.96 4 -10.57 117.17 TC 31 999 2 130
1974 SI WA 12:00:00 TS -10.44 117.07 145 145 O_____P__OO_O_ jtwc_sh SH071974 -10.30 117.00 -1 -10.57 117.10 20 30 997 -10.30 117.00 TC -10.30 117.00 4 -10.60 117.20 TC 35 998 2 136
1974 SI WA 13:00:00 TS -10.46 117.08 30 997 bom 156 156 P_____O__PP_P_ SH071974 -10.32 117.02 -1 -10.60 117.10 20 30 997 2.50 -10.32 117.02 TC -10.31 117.02 4 -10.62 117.20 TC 35 997 1 145
1974 SI WA 15:00:00 TS -10.49 117.12 156 156 P_____P__PP_P_ SH071974 -10.36 117.06 -1 -10.60 117.17 20 30 996 -10.36 117.06 TC -10.33 117.05 4 -10.65 117.20 TC 35 997 1 137
1974 SI WA 16:00:00 TS -10.50 117.13 30 996 bom 156 156 P_____O__PP_P_ SH071974 -10.37 117.07 -1 -10.60 117.20 20 30 996 2.50 -10.37 117.07 TC -10.34 117.06 4 -10.67 117.20 TC 35 996 1 149
1974 SI WA 18:00:00 TS -10.54 117.15 156 156 O_____P__OP_O_ jtwc_sh SH071974 -10.40 117.10 -1 -10.67 117.20 20 33 994 -10.40 117.10 TC -10.36 117.09 4 -10.70 117.20 TC 35 996 1 151
1974 SI WA 19:00:00 TS -10.55 117.16 35 994 bom 168 168 P_____O__PP_P_ SH071974 -10.41 117.11 -1 -10.70 117.20 20 35 994 3.00 -10.41 117.11 TC -10.37 117.11 4 -10.72 117.21 TC 35 995 1 121
1974 SI WA 21:00:00 TS -10.57 117.19 168 168 P_____P__PP_P_ SH071974 -10.41 117.14 -1 -10.70 117.28 20 35 994 -10.41 117.14 TC -10.39 117.14 4 -10.76 117.24 TC 37 995 1 122
1974 SI WA 22:00:00 TS -10.57 117.20 35 994 bom 168 168 P_____O__PP_P_ SH071974 -10.41 117.16 -1 -10.70 117.30 30 35 994 3.00 -10.41 117.16 TC -10.39 117.16 4 -10.77 117.25 TC 38 994 1 132
1974 SI WA 1973-11-28 00:00:00 TS -10.59 117.22 168 168 O_____P__OO_O_ jtwc_sh SH071974 -10.40 117.20 -1 -10.77 117.22 30 35 994 -10.40 117.20 TC -10.40 117.20 4 -10.80 117.30 TC 40 994 1 123
1974 SI WA 01:00:00 TS -10.61 117.24 35 994 bom 168 168 P_____O__PP_P_ SH071974 -10.40 117.23 -1 -10.80 117.20 30 35 994 3.00 -10.40 117.23 TC -10.40 117.22 4 -10.81 117.33 TC 40 993 2 100
1974 SI WA 03:00:00 TS -10.61 117.32 169 169 P_____P__PP_P_ SH071974 -10.41 117.29 -1 -10.80 117.32 30 38 992 -10.41 117.29 TC -10.39 117.28 4 -10.81 117.39 TC 42 993 2 94
1974 SI WA 04:00:00 TS -10.61 117.36 40 992 bom 171 171 P_____O__PP_P_ SH071974 -10.41 117.33 -1 -10.80 117.40 30 40 992 3.00 -10.41 117.33 TC -10.38 117.31 4 -10.81 117.43 TC 43 992 2 95
1974 SI WA 06:00:00 TS -10.62 117.44 171 171 O_____P__OP_O_ jtwc_sh SH071974 -10.40 117.40 -1 -10.87 117.47 30 40 989 -10.40 117.40 TC -10.36 117.37 4 -10.80 117.50 TC 45 992 2 93
1974 SI WA 07:00:00 TS -10.62 117.47 40 989 bom 173 173 P_____O__PP_P_ SH071974 -10.39 117.43 -1 -10.90 117.50 30 40 989 3.00 -10.39 117.43 TC -10.35 117.40 4 -10.80 117.53 TC 45 991 2 77
1974 SI WA 09:00:00 TS -10.60 117.54 173 173 P_____P__PP_P_ SH071974 -10.35 117.49 -1 -10.91 117.57 30 40 989 -10.35 117.49 TC -10.33 117.48 4 -10.80 117.60 TC 45 991 2 71
1974 SI WA 10:00:00 TS -10.59 117.57 40 989 bom 176 176 P_____O__PP_P_ SH071974 -10.33 117.53 -1 -10.90 117.60 30 40 989 3.00 -10.33 117.53 TC -10.32 117.52 4 -10.80 117.63 TC 45 990 2 66
1974 SI WA 12:00:00 TS -10.56 117.64 176 170 O_____P__OO_O_ jtwc_sh SH071974 -10.30 117.60 -1 -10.83 117.67 30 43 989 -10.30 117.60 TC -10.30 117.60 4 -10.80 117.70 TC 45 990 2 71
1974 SI WA 13:00:00 TS -10.55 117.68 45 990 bom 170 164 P_____O__PP_P_ SH071974 -10.30 117.64 -1 -10.80 117.70 30 45 990 3.00 -10.30 117.64 TC -10.29 117.65 4 -10.80 117.73 TC 45 989 2 85
1974 SI WA 15:00:00 TS -10.54 117.77 164 164 P_____P__PP_P_ SH071974 -10.30 117.74 -1 -10.79 117.77 30 45 989 -10.30 117.74 TC -10.27 117.75 4 -10.81 117.80 TC 47 989 2 89
1974 SI WA 16:00:00 TS -10.55 117.81 45 989 bom 164 156 P_____O__PP_P_ SH071974 -10.30 117.79 -1 -10.80 117.80 30 45 989 3.00 -10.30 117.79 TC -10.26 117.81 4 -10.81 117.83 TC 48 989 3 88
1974 SI WA 18:00:00 TS -10.54 117.90 156 156 O_____P__OP_O_ jtwc_sh SH071974 -10.30 117.90 -1 -10.81 117.87 30 48 988 -10.30 117.90 TC -10.24 117.92 4 -10.80 117.90 TC 50 989 3 83
1974 SI WA 19:00:00 TS -10.53 117.94 50 988 bom 156 148 P_____O__PP_P_ SH071974 -10.29 117.96 -1 -10.80 117.90 30 50 988 3.50 -10.29 117.96 TC -10.23 117.97 4 -10.79 117.93 TC 50 988 3 69
1974 SI WA 21:00:00 TS -10.49 118.03 148 141 P_____P__PP_P_ SH071974 -10.25 118.07 -1 -10.73 117.97 30 50 988 -10.25 118.07 TC -10.21 118.07 4 -10.75 118.00 TC 50 988 3 65
1974 SI WA 22:00:00 TS -10.47 118.07 50 988 bom 141 141 P_____O__PP_P_ SH071974 -10.23 118.12 -1 -10.70 118.00 30 50 988 3.50 -10.23 118.12 TC -10.21 118.12 4 -10.73 118.03 TC 50 988 2 70
1974 SI WA 1973-11-29 00:00:00 TS -10.45 118.15 133 125 O_____P__OO_O_ jtwc_sh SH071974 -10.20 118.20 -1 -10.69 118.07 30 50 988 -10.20 118.20 TC -10.20 118.20 4 -10.70 118.10 TC 50 988 2 75
1974 SI WA 01:00:00 TS -10.44 118.17 50 988 bom 125 125 P_____O__PP_P_ SH071974 -10.19 118.23 -1 -10.70 118.10 30 50 988 3.50 -10.19 118.23 TC -10.20 118.23 4 -10.69 118.14 TC 50 987 1 84
1974 SI WA 03:00:00 TS -10.44 118.21 125 125 P_____P__PP_P_ SH071974 -10.18 118.26 -1 -10.70 118.10 30 50 986 -10.18 118.26 TC -10.21 118.28 4 -10.69 118.21 TC 52 987 1 90
1974 SI WA 04:00:00 TS -10.44 118.22 50 986 bom 125 125 P_____O__PP_P_ SH071974 -10.19 118.28 -1 -10.70 118.10 30 50 986 3.50 -10.19 118.28 TC -10.21 118.30 4 -10.69 118.24 TC 53 986 1 111
1974 SI WA 06:00:00 TS -10.46 118.26 125 125 O_____P__OP_O_ jtwc_sh SH071974 -10.20 118.30 -1 -10.73 118.19 30 50 984 -10.20 118.30 TC -10.23 118.34 4 -10.70 118.30 TC 55 986 1 126
1974 SI WA 09:00:00 TS -10.51 118.32 125 125 P_____P__PP_P_ SH071974 -10.25 118.35 -1 -10.79 118.31 30 50 983 -10.25 118.35 TC -10.26 118.37 4 -10.74 118.36 TC 55 984 1 134
1974 SI WA 10:00:00 TS -10.52 118.33 50 983 bom 125 125 P_____O__PP_P_ SH071974 -10.27 118.37 -1 -10.80 118.30 30 50 983 3.50 -10.27 118.37 TC -10.27 118.38 4 -10.76 118.37 TC 55 984 1 0
1974 SI WA 12:00:00 TS -10.55 118.32 133 133 O_____P__OO_O_ jtwc_sh SH071974 -10.30 118.40 -1 -10.80 118.14 30 50 983 -10.30 118.40 TC -10.30 118.40 4 -10.80 118.40 TC 55 983 1 144
1974 SI WA 13:00:00 TS -10.56 118.33 50 983 bom 133 126 P_____O__PP_P_ SH071974 -10.30 118.42 -1 -10.80 118.10 30 50 983 3.50 -10.30 118.42 TC -10.30 118.42 4 -10.82 118.42 TC 55 982 2 99
1974 SI WA 15:00:00 TS -10.56 118.41 126 126 P_____P__PP_P_ SH071974 -10.29 118.46 -1 -10.79 118.30 30 53 982 -10.29 118.46 TC -10.30 118.47 4 -10.85 118.45 TC 57 982 2 97
1974 SI WA 16:00:00 TS -10.57 118.44 55 982 bom 126 120 P_____O__PP_P_ SH071974 -10.29 118.47 -1 -10.80 118.40 30 55 982 4.00 -10.29 118.47 TC -10.30 118.49 4 -10.87 118.47 TC 58 982 1 116
1974 SI WA 18:00:00 TS -10.60 118.47 120 120 O_____P__OP_O_ jtwc_sh SH071974 -10.30 118.50 -1 -10.87 118.41 30 55 981 -10.30 118.50 TC -10.31 118.52 4 -10.90 118.50 TC 60 982 1 141
1974 SI WA 19:00:00 TS -10.61 118.49 55 981 bom 120 120 P_____O__PP_P_ SH071974 -10.31 118.51 -1 -10.90 118.40 30 55 981 4.00 -10.31 118.51 TC -10.32 118.54 4 -10.91 118.52 TC 60 981 1 144
1974 SI WA 21:00:00 TS -10.64 118.52 120 120 P_____P__PP_P_ SH071974 -10.35 118.53 -1 -10.90 118.47 30 55 981 -10.35 118.53 TC -10.37 118.54 4 -10.93 118.57 TC 60 981 1 142
1974 SI WA 22:00:00 TS -10.67 118.53 55 981 bom 129 129 P_____O__PP_P_ SH071974 -10.39 118.53 -1 -10.90 118.50 30 55 981 4.00 -10.39 118.53 TC -10.40 118.54 4 -10.95 118.59 TC 60 981 2 194
1974 SI WA 1973-11-30 00:00:00 TS -10.74 118.52 129 129 O_____P__OO_O_ jtwc_sh SH071974 -10.50 118.50 -1 -10.96 118.51 30 55 981 -10.50 118.50 TC -10.50 118.50 4 -11.00 118.60 TC 60 981 3 198
1974 SI WA 01:00:00 TS -10.80 118.50 55 981 bom 139 139 P_____O__PP_P_ SH071974 -10.57 118.47 -1 -11.00 118.50 30 55 981 4.00 -10.57 118.47 TC -10.57 118.47 4 -11.04 118.59 TC 60 980 4 206
1974 SI WA 03:00:00 TS -10.92 118.43 154 154 P_____P__PP_P_ SH071974 -10.76 118.39 -1 -11.06 118.45 30 58 979 -10.76 118.39 TC -10.75 118.38 4 -11.13 118.54 TC 62 980 5 210
1974 SI WA 04:00:00 TS -11.00 118.38 60 979 bom 164 164 P_____O__PP_P_ SH071974 -10.87 118.33 -1 -11.10 118.40 30 60 979 4.00 -10.87 118.33 TC -10.85 118.32 4 -11.18 118.50 TC 63 979 6 213
1974 SI WA 06:00:00 TS -11.17 118.26 189 189 O_____P__OP_O_ jtwc_sh SH071974 -11.10 118.20 -1 -11.22 118.27 30 63 976 -11.10 118.20 TC -11.08 118.19 4 -11.30 118.40 TC 65 979 6 214
1974 SI WA 07:00:00 TS -11.26 118.20 65 976 bom 204 204 P_____O__PP_P_ SH071974 -11.21 118.13 -1 -11.30 118.20 40 65 976 4.50 -11.21 118.13 TC -11.19 118.12 4 -11.36 118.35 TC 65 978 7 215
1974 SI WA 09:00:00 TS -11.46 118.05 234 234 P_____P__PP_P_ SH071974 -11.45 117.97 -1 -11.49 118.06 40 65 976 -11.45 117.97 TC -11.44 117.96 4 -11.48 118.22 TC 65 977 8 215
1974 SI WA 10:00:00 TS -11.57 117.97 65 976 bom 244 244 P_____O__PP_P_ SH071974 -11.57 117.88 -1 -11.60 118.00 40 65 976 4.50 -11.57 117.88 TC -11.56 117.87 4 -11.55 118.15 TC 65 977 8 214
1974 SI WA 12:00:00 TS -11.78 117.83 274 274 O_____P__OO_O_ jtwc_sh SH071974 -11.80 117.70 -1 -11.80 117.95 40 65 976 -11.80 117.70 TC -11.80 117.70 4 -11.70 118.00 TC 65 976 8 215
1974 SI WA 13:00:00 TS -11.88 117.75 65 976 bom 290 290 P_____O__PP_P_ SH071974 -11.91 117.62 -1 -11.90 117.90 40 65 976 4.50 -11.91 117.62 TC -11.90 117.62 4 -11.79 117.92 TC 65 975 8 220
1974 SI WA 15:00:00 TS -12.08 117.57 314 314 P_____P__PP_P_ SH071974 -12.11 117.46 -1 -12.10 117.64 40 65 975 -12.11 117.46 TC -12.10 117.46 4 -11.98 117.76 TC 67 975 8 223
1974 SI WA 16:00:00 TS -12.18 117.47 65 975 bom 330 330 P_____O__PP_P_ SH071974 -12.21 117.37 -1 -12.20 117.50 40 65 975 4.50 -12.21 117.37 TC -12.20 117.37 4 -12.08 117.68 TC 68 975 8 223
1974 SI WA 18:00:00 TS -12.38 117.28 360 360 O_____P__OP_O_ jtwc_sh SH071974 -12.40 117.20 -1 -12.40 117.29 40 68 973 -12.40 117.20 TC -12.40 117.19 4 -12.30 117.50 TC 70 975 8 222
1974 SI WA 19:00:00 TS -12.48 117.19 70 973 bom 376 376 P_____O__PP_P_ SH071974 -12.50 117.11 -1 -12.50 117.20 40 70 973 4.50 -12.50 117.11 TC -12.50 117.10 4 -12.41 117.41 TC 70 974 8 223
1974 SI WA 21:00:00 TS -12.69 116.99 403 403 P_____P__PP_P_ SH071974 -12.70 116.91 -1 -12.69 117.00 40 70 973 -12.70 116.91 TC -12.70 116.91 4 -12.64 117.21 TC 70 974 9 223
1974 SI WA 22:00:00 TS -12.79 116.89 70 973 bom 414 414 P_____O__PP_P_ SH071974 -12.80 116.81 -1 -12.80 116.90 40 70 973 4.50 -12.80 116.81 TC -12.80 116.81 4 -12.76 117.11 TC 70 973 9 223
1974 SI WA 1973-12-01 00:00:00 TS -13.01 116.68 438 438 O_____P__OO_O_ jtwc_sh SH071974 -13.00 116.60 -1 -13.07 116.70 40 70 973 -13.00 116.60 TC -13.00 116.60 4 -13.00 116.90 TC 70 973 9 223
1974 SI WA 01:00:00 TS -13.12 116.58 70 973 bom 450 450 P_____O__PP_P_ SH071974 -13.10 116.49 -1 -13.20 116.60 40 70 973 4.50 -13.10 116.49 TC -13.10 116.49 4 -13.12 116.80 TC 70 973 9 224
1974 SI WA 03:00:00 TS -13.33 116.36 474 474 P_____P__PP_P_ SH071974 -13.29 116.26 -1 -13.41 116.40 40 70 973 -13.29 116.26 TC -13.30 116.26 4 -13.35 116.60 TC 70 973 9 225
1974 SI WA 04:00:00 TS -13.44 116.25 70 973 bom 487 487 P_____O__PP_P_ SH071974 -13.39 116.14 -1 -13.50 116.30 40 70 973 4.50 -13.39 116.14 TC -13.40 116.14 4 -13.47 116.50 TC 70 973 9 225
1974 SI WA 06:00:00 TS -13.65 116.03 526 526 O_____P__OP_O_ jtwc_sh SH071974 -13.60 115.90 -1 -13.69 116.10 40 70 973 -13.60 115.90 TC -13.61 115.90 4 -13.70 116.30 TC 70 973 9 224
1974 SI WA 07:00:00 TS -13.76 115.92 70 973 bom 539 539 P_____O__PP_P_ SH071974 -13.71 115.78 -1 -13.80 116.00 40 70 973 4.50 -13.71 115.78 TC -13.72 115.78 4 -13.82 116.20 TC 70 973 10 222
1974 SI WA 09:00:00 TS -14.00 115.70 565 565 P_____P__PP_P_ SH071974 -13.93 115.54 -1 -14.06 115.80 40 70 973 -13.93 115.54 TC -13.94 115.54 4 -14.05 116.00 TC 70 973 10 221
1974 SI WA 10:00:00 TS -14.13 115.60 70 973 bom 577 577 P_____O__PP_P_ SH071974 -14.05 115.43 -1 -14.20 115.70 40 70 973 4.50 -14.05 115.43 TC -14.06 115.42 4 -14.17 115.90 TC 70 973 10 220
1974 SI WA 12:00:00 TS -14.38 115.38 614 614 O_____P__OO_O_ jtwc_sh SH071974 -14.30 115.20 -1 -14.47 115.50 40 70 973 -14.30 115.20 TC -14.30 115.20 4 -14.40 115.70 TC 70 973 10 219
1974 SI WA 13:00:00 TS -14.50 115.28 70 973 bom 627 627 P_____O__PP_P_ SH071974 -14.42 115.09 -1 -14.60 115.40 40 70 973 4.50 -14.42 115.09 TC -14.43 115.09 4 -14.51 115.60 TC 70 973 10 218
1974 SI WA 15:00:00 TS -14.76 115.08 664 662 P_____P__PP_P_ SH071974 -14.68 114.88 -1 -14.87 115.20 40 70 973 -14.68 114.88 TC -14.70 114.87 4 -14.74 115.41 TC 70 973 10 217
1974 SI WA 16:00:00 TS -14.90 114.98 70 973 bom 662 644 P_____O__PP_P_ SH071974 -14.82 114.79 -1 -15.00 115.10 40 70 973 4.50 -14.82 114.79 TC -14.85 114.77 4 -14.86 115.31 TC 70 973 10 216
1974 SI WA 18:00:00 TS -15.17 114.78 636 629 O_____P__OP_O_ jtwc_sh SH071974 -15.10 114.60 -1 -15.27 114.90 40 70 973 -15.10 114.60 TC -15.14 114.57 4 -15.10 115.10 TC 70 973 10 216
1974 SI WA 19:00:00 TS -15.31 114.67 70 973 bom 629 605 P_____O__PP_P_ SH071974 -15.25 114.50 -1 -15.40 114.80 40 70 973 4.50 -15.25 114.50 TC -15.28 114.48 4 -15.23 114.98 TC 70 973 10 215
1974 SI WA 21:00:00 TS -15.59 114.47 605 599 P_____P__PP_P_ SH071974 -15.56 114.32 -1 -15.67 114.61 40 70 973 -15.56 114.32 TC -15.57 114.31 4 -15.49 114.72 TC 70 973 10 214
1974 SI WA 22:00:00 TS -15.73 114.37 70 973 bom 599 578 P_____O__PP_P_ SH071974 -15.71 114.24 -1 -15.80 114.50 40 70 973 4.50 -15.71 114.24 TC -15.72 114.23 4 -15.63 114.60 TC 70 973 10 213
1974 SI WA 1973-12-02 00:00:00 TS -16.01 114.19 578 568 O_____P__OO_O_ jtwc_sh SH071974 -16.00 114.10 -1 -16.07 114.22 40 70 973 -16.00 114.10 TC -16.00 114.10 4 -15.90 114.40 TC 70 973 10 210
1974 SI WA 01:00:00 TS -16.14 114.12 70 973 bom 573 549 P_____O__PP_P_ SH071974 -16.13 114.05 -1 -16.20 114.10 40 70 973 4.50 -16.13 114.05 TC -16.13 114.05 4 -16.03 114.34 TC 69 973 8 201
1974 SI WA 03:00:00 TS -16.39 114.03 549 539 P_____P__PP_P_ SH071974 -16.36 113.97 -1 -16.47 114.01 40 70 973 -16.36 113.97 TC -16.38 113.96 4 -16.30 114.25 TC 67 974 8 196
1974 SI WA 04:00:00 TS -16.52 114.01 70 974 bom 539 520 P_____O__PP_P_ SH071974 -16.47 113.94 -1 -16.60 114.00 40 70 974 4.50 -16.47 113.94 TC -16.50 113.93 4 -16.43 114.23 TC 66 974 8 188
1974 SI WA 06:00:00 TS -16.77 113.98 511 502 O_____P__OP_O_ jtwc_sh SH071974 -16.70 113.90 -1 -16.87 113.99 40 66 974 -16.70 113.90 TC -16.75 113.87 4 -16.70 114.20 TC 65 976 8 186
1974 SI WA 07:00:00 TS -16.90 113.96 65 975 bom 502 489 P_____O__PP_P_ SH071974 -16.83 113.87 -1 -17.00 114.00 40 65 975 4.50 -16.83 113.87 TC -16.87 113.86 4 -16.83 114.17 TC 64 976 8 184
1974 SI WA 09:00:00 TS -17.16 113.94 479 469 P_____P__PP_P_ SH071974 -17.09 113.83 -1 -17.27 114.00 40 65 977 -17.09 113.83 TC -17.12 113.83 4 -17.08 114.13 TC 62 978 8 187
1974 SI WA 10:00:00 TS -17.29 113.93 65 978 bom 469 450 P_____O__PP_P_ SH071974 -17.23 113.82 -1 -17.40 114.00 40 65 978 4.50 -17.23 113.82 TC -17.24 113.82 4 -17.22 114.12 TC 61 979 8 0
1974 SI WA 12:00:00 TS -17.56 113.92 441 431 O_____P__OO_O_ jtwc_sh SH071974 -17.50 113.80 -1 -17.66 114.00 40 61 981 -17.50 113.80 TC -17.50 113.80 4 -17.50 114.10 TC 60 981 8 0
1974 SI WA 13:00:00 TS -17.70 113.91 60 983 bom 431 404 P_____O__PP_P_ SH071974 -17.63 113.80 -1 -17.80 114.00 30 60 983 4.00 -17.63 113.80 TC -17.63 113.78 4 -17.66 114.09 TC 59 981 9 0
1974 SI WA 15:00:00 TS -17.99 113.91 404 395 P_____P__PP_P_ SH071974 -17.89 113.80 -1 -18.13 114.00 30 60 985 -17.89 113.80 TC -17.89 113.76 4 -17.99 114.09 TC 57 982 9 0
1974 SI WA 16:00:00 TS -18.14 113.91 60 986 bom 395 367 P_____O__PP_P_ SH071974 -18.03 113.80 -1 -18.30 114.00 30 60 986 4.00 -18.03 113.80 TC -18.03 113.75 4 -18.16 114.09 TC 56 982 9 0
1974 SI WA 18:00:00 TS -18.44 113.91 367 349 O_____P__OP_O_ jtwc_sh SH071974 -18.30 113.80 -1 -18.63 114.00 30 56 986 -18.30 113.80 TC -18.31 113.73 4 -18.50 114.10 TC 55 984 9 183
1974 SI WA 19:00:00 TS -18.59 113.90 55 986 bom 349 322 P_____O__PP_P_ SH071974 -18.44 113.79 -1 -18.80 114.00 30 55 986 4.00 -18.44 113.79 TC -18.45 113.73 4 -18.67 114.10 TC 54 984 9 183
1974 SI WA 21:00:00 TS -18.91 113.89 322 314 P_____P__PP_P_ SH071974 -18.74 113.75 -1 -19.13 114.00 30 55 986 -18.74 113.75 TC -18.74 113.72 4 -19.00 114.11 TC 52 985 10 0
1974 SI WA 22:00:00 TS -19.06 113.88 55 987 bom 306 277 P_____O__PP_P_ SH071974 -18.89 113.73 -1 -19.30 114.00 30 55 987 4.00 -18.89 113.73 TC -18.89 113.71 4 -19.17 114.11 TC 51 985 10 0
1974 SI WA 1973-12-03 00:00:00 TS -19.39 113.87 277 267 O_____P__OO_O_ jtwc_sh SH071974 -19.20 113.70 -1 -19.63 114.00 30 55 987 -19.20 113.70 TC -19.20 113.70 4 -19.50 114.10 TC 50 987 10 0
1974 SI WA 01:00:00 TS -19.55 113.86 55 988 bom 256 224 P_____O__PP_P_ SH071974 -19.36 113.70 -1 -19.80 114.00 30 55 988 4.00 -19.36 113.70 TC -19.36 113.68 4 -19.67 114.09 TC 49 987 10 0
1974 SI WA 03:00:00 TS -19.88 113.84 224 213 P_____P__PP_P_ SH071974 -19.69 113.70 -1 -20.13 114.01 30 55 988 -19.69 113.70 TC -19.70 113.65 4 -20.00 114.06 TC 47 989 10 182
1974 SI WA 04:00:00 TS -20.05 113.84 55 989 bom 202 169 P_____O__PP_P_ SH071974 -19.85 113.70 -1 -20.30 114.00 30 55 989 4.00 -19.85 113.70 TC -19.88 113.63 4 -20.17 114.04 TC 46 989 10 184
1974 SI WA 06:00:00 TS -20.39 113.80 169 157 O_____P__OP_O_ jtwc_sh SH071974 -20.20 113.70 -1 -20.63 113.93 30 51 989 -20.20 113.70 TC -20.23 113.60 4 -20.50 114.00 TC 45 991 10 183
1974 SI WA 07:00:00 TS -20.57 113.79 50 990 bom 146 113 P_____O__PP_P_ SH071974 -20.38 113.68 -1 -20.80 113.90 30 50 990 3.50 -20.38 113.68 TC -20.41 113.59 4 -20.66 113.98 TC 43 991 11 183
1974 SI WA 09:00:00 TS -20.94 113.76 113 91 P_____P__PP_P_ SH071974 -20.75 113.64 -1 -21.20 113.90 30 50 992 -20.75 113.64 TC -20.77 113.58 4 -20.99 113.95 TC 40 993 11 184
1974 SI WA 10:00:00 TS -21.12 113.75 50 994 bom 94 63 P_____O__PP_P_ SH071974 -20.94 113.62 -1 -21.40 113.90 30 50 994 3.50 -20.94 113.62 TC -20.95 113.58 4 -21.16 113.93 TC 38 994 11 185
1974 SI WA 12:00:00 TS -21.47 113.72 54 45 O_____P__OO_O_ jtwc_sh SH071974 -21.30 113.60 -1 -21.74 113.84 30 46 996 -21.30 113.60 TC -21.30 113.60 4 -21.50 113.90 TC 35 996 11 183
1974 SI WA 13:00:00 TS -21.65 113.71 45 998 bom 45 23 P_____O__PP_P_ SH071974 -21.47 113.61 -1 -21.90 113.80 30 45 998 3.00 -21.47 113.61 TC -21.47 113.62 4 -21.69 113.87 TC 35 996 10 183
1974 SI WA 15:00:00 TS -21.99 113.70 45 1001 bom 23 20 P_____O__PP_P_ SH071974 -21.81 113.66 -1 -22.20 113.70 30 45 1001 3.00 -21.81 113.66 TC -21.80 113.69 4 -22.07 113.82 TC 35 999 10 0
1974 SI WA 16:00:00 TS -22.16 113.71 40 1002 bom 15 0 P_____O__PP_P_ SH071974 -21.98 113.70 -1 -22.40 113.70 30 40 1002 3.00 -21.98 113.70 TC -21.96 113.73 4 -22.26 113.80 TC 35 999 10 174
1974 SI WA 18:00:00 TS -22.49 113.75 0 0 O_____P__OP_O_ jtwc_sh SH071974 -22.30 113.80 -1 -22.75 113.69 30 33 1002 -22.30 113.80 TC -22.28 113.83 4 -22.60 113.80 TC 35 1002 10 171
1974 SI WA 19:00:00 TS -22.64 113.79 30 1002 bom 0 0 P_____O__PP_P_ SH071974 -22.46 113.86 -1 -22.90 113.70 20 30 1002 2.50 -22.46 113.86 TC -22.44 113.88 4 -22.75 113.82 TC 34 1002 9 163
1974 SI WA 21:00:00 TS -22.93 113.90 0 0 P_____P__PP_P_ SH071974 -22.76 113.99 -1 -23.19 113.82 20 30 1003 -22.76 113.99 TC -22.74 114.00 4 -22.99 113.91 TC 32 1003 9 159
1974 SI WA 22:00:00 TS -23.07 113.97 30 1004 bom 0 0 P_____O__PP_P_ SH071974 -22.91 114.06 -1 -23.30 113.90 20 30 1004 2.50 -22.91 114.06 TC -22.90 114.07 4 -23.10 113.97 TC 31 1003 9 154
1974 SI WA 1973-12-04 00:00:00 TS -23.31 114.11 0 0 O_____P__OO_O_ jtwc_sh SH071974 -23.20 114.20 -1 -23.45 114.04 20 26 1004 -23.20 114.20 TC -23.20 114.20 4 -23.30 114.10 TC 30 1004 9 164
1974 SI WA 01:00:00 NR -23.50 114.10 25 1005 bom 0 ______O_______ SH071974 -1 -23.50 114.10 20 25 1005 2.00 TC 4 TC 11 0